Archival Weather

Fayette Rgnl Air Cntr Arp

Fayette Rgnl Air Cntr Arp, Texas (K3T5)

Report from: Thursday, September 22, 2022 8:35 AM CDT
Current time: Friday, February 3, 2023 10:59 PM CST

Current weather
Weather history
Weather forecast

Temperature22.4°C (72.3°F)
Dew point21.9°C (71.4°F)
Winds Calm
Visibility10 mi. (16.1 km)
Clouds Sky clear
Altimeter30.01 in.Hg (1016 mB)
Relative humidity97 %
Density altitude1,114 ft. (340 m)
Remarks Fully automated report
Automated weather observing station with precipitation discriminator
Flight conditions Visual Meteorological Conditions
Raw dataK3T5 221335Z AUTO 00000KT 10SM CLR 22/22 A3001 RMK AO2 T02240219
An unhandled exception has occurred. See browser dev tools for details. Reload 🗙